sensor_id;sensor_type;location;lat;lon;timestamp;P1;durP1;ratioP1;P2;durP2;ratioP2
20727;SDS011;10525;50.154;8.198;2023-02-01T00:01:54;11.75;;;7.07;;
20727;SDS011;10525;50.154;8.198;2023-02-01T00:04:22;12.18;;;7.38;;
20727;SDS011;10525;50.154;8.198;2023-02-01T00:06:48;12.85;;;7.05;;
20727;SDS011;10525;50.154;8.198;2023-02-01T00:09:15;8.32;;;6.32;;
20727;SDS011;10525;50.154;8.198;2023-02-01T00:11:43;6.65;;;5.90;;
20727;SDS011;10525;50.154;8.198;2023-02-01T00:14:10;8.00;;;5.05;;
20727;SDS011;10525;50.154;8.198;2023-02-01T00:16:38;7.88;;;5.28;;
20727;SDS011;10525;50.154;8.198;2023-02-01T00:19:06;6.57;;;5.20;;
20727;SDS011;10525;50.154;8.198;2023-02-01T00:21:33;6.57;;;4.82;;
20727;SDS011;10525;50.154;8.198;2023-02-01T00:24:00;5.80;;;4.10;;
20727;SDS011;10525;50.154;8.198;2023-02-01T00:26:27;5.40;;;4.78;;
20727;SDS011;10525;50.154;8.198;2023-02-01T00:28:59;5.60;;;4.57;;
20727;SDS011;10525;50.154;8.198;2023-02-01T00:31:26;8.13;;;4.50;;
20727;SDS011;10525;50.154;8.198;2023-02-01T00:33:53;7.18;;;4.75;;
20727;SDS011;10525;50.154;8.198;2023-02-01T00:36:19;7.65;;;4.53;;
20727;SDS011;10525;50.154;8.198;2023-02-01T00:38:46;7.80;;;5.13;;
20727;SDS011;10525;50.154;8.198;2023-02-01T00:41:13;8.82;;;4.68;;
20727;SDS011;10525;50.154;8.198;2023-02-01T00:43:42;5.97;;;4.80;;
20727;SDS011;10525;50.154;8.198;2023-02-01T00:46:11;6.65;;;4.60;;
20727;SDS011;10525;50.154;8.198;2023-02-01T00:48:38;4.30;;;3.90;;
20727;SDS011;10525;50.154;8.198;2023-02-01T00:51:06;7.97;;;4.78;;
20727;SDS011;10525;50.154;8.198;2023-02-01T00:53:34;7.65;;;4.25;;
20727;SDS011;10525;50.154;8.198;2023-02-01T00:56:02;7.63;;;4.35;;
20727;SDS011;10525;50.154;8.198;2023-02-01T00:58:30;5.75;;;4.00;;
20727;SDS011;10525;50.154;8.198;2023-02-01T01:01:00;4.85;;;4.45;;
20727;SDS011;10525;50.154;8.198;2023-02-01T01:03:29;7.72;;;4.97;;
20727;SDS011;10525;50.154;8.198;2023-02-01T01:05:58;8.55;;;4.75;;
20727;SDS011;10525;50.154;8.198;2023-02-01T01:08:26;6.43;;;5.30;;
20727;SDS011;10525;50.154;8.198;2023-02-01T01:10:52;8.18;;;4.90;;
20727;SDS011;10525;50.154;8.198;2023-02-01T01:13:19;8.88;;;5.80;;
20727;SDS011;10525;50.154;8.198;2023-02-01T01:15:46;5.40;;;4.97;;
20727;SDS011;10525;50.154;8.198;2023-02-01T01:18:13;7.68;;;5.15;;
20727;SDS011;10525;50.154;8.198;2023-02-01T01:20:41;7.30;;;4.82;;
20727;SDS011;10525;50.154;8.198;2023-02-01T01:23:08;10.95;;;5.28;;
20727;SDS011;10525;50.154;8.198;2023-02-01T01:25:36;9.35;;;5.25;;
20727;SDS011;10525;50.154;8.198;2023-02-01T01:28:04;8.48;;;5.28;;
20727;SDS011;10525;50.154;8.198;2023-02-01T01:30:31;7.28;;;5.25;;
20727;SDS011;10525;50.154;8.198;2023-02-01T01:32:59;4.90;;;4.50;;
20727;SDS011;10525;50.154;8.198;2023-02-01T01:35:25;5.93;;;5.10;;
20727;SDS011;10525;50.154;8.198;2023-02-01T01:37:55;8.32;;;4.70;;
20727;SDS011;10525;50.154;8.198;2023-02-01T01:40:22;4.88;;;4.45;;
20727;SDS011;10525;50.154;8.198;2023-02-01T01:42:48;7.15;;;4.63;;
20727;SDS011;10525;50.154;8.198;2023-02-01T01:45:20;7.35;;;5.40;;
20727;SDS011;10525;50.154;8.198;2023-02-01T01:47:50;5.82;;;5.30;;
20727;SDS011;10525;50.154;8.198;2023-02-01T01:50:20;5.40;;;4.80;;
20727;SDS011;10525;50.154;8.198;2023-02-01T01:52:53;7.25;;;5.15;;
20727;SDS011;10525;50.154;8.198;2023-02-01T01:55:24;6.70;;;4.63;;
20727;SDS011;10525;50.154;8.198;2023-02-01T01:57:53;7.03;;;5.30;;
20727;SDS011;10525;50.154;8.198;2023-02-01T02:00:23;5.70;;;3.92;;
20727;SDS011;10525;50.154;8.198;2023-02-01T02:02:52;5.32;;;4.57;;
20727;SDS011;10525;50.154;8.198;2023-02-01T02:05:22;4.40;;;3.70;;
20727;SDS011;10525;50.154;8.198;2023-02-01T02:07:50;5.47;;;4.15;;
20727;SDS011;10525;50.154;8.198;2023-02-01T02:10:20;4.47;;;4.05;;
20727;SDS011;10525;50.154;8.198;2023-02-01T02:13:07;12.93;;;4.07;;
20727;SDS011;10525;50.154;8.198;2023-02-01T02:15:34;4.35;;;3.60;;
20727;SDS011;10525;50.154;8.198;2023-02-01T02:18:07;3.65;;;3.35;;
20727;SDS011;10525;50.154;8.198;2023-02-01T02:20:52;8.88;;;3.58;;
20727;SDS011;10525;50.154;8.198;2023-02-01T02:23:45;4.82;;;3.40;;
20727;SDS011;10525;50.154;8.198;2023-02-01T02:26:35;8.38;;;3.90;;
20727;SDS011;10525;50.154;8.198;2023-02-01T02:29:26;13.35;;;3.78;;
20727;SDS011;10525;50.154;8.198;2023-02-01T02:32:29;4.53;;;3.58;;
20727;SDS011;10525;50.154;8.198;2023-02-01T02:35:23;7.78;;;3.38;;
20727;SDS011;10525;50.154;8.198;2023-02-01T02:37:59;5.97;;;3.55;;
20727;SDS011;10525;50.154;8.198;2023-02-01T02:40:36;2.72;;;2.55;;
20727;SDS011;10525;50.154;8.198;2023-02-01T02:43:09;4.35;;;3.30;;
20727;SDS011;10525;50.154;8.198;2023-02-01T02:45:54;6.95;;;2.92;;
20727;SDS011;10525;50.154;8.198;2023-02-01T02:48:44;9.52;;;4.00;;
20727;SDS011;10525;50.154;8.198;2023-02-01T02:51:19;7.25;;;3.40;;
20727;SDS011;10525;50.154;8.198;2023-02-01T02:54:08;8.50;;;3.33;;
20727;SDS011;10525;50.154;8.198;2023-02-01T02:56:56;3.78;;;3.28;;
20727;SDS011;10525;50.154;8.198;2023-02-01T02:59:43;4.07;;;3.10;;
20727;SDS011;10525;50.154;8.198;2023-02-01T03:02:29;3.00;;;2.80;;
20727;SDS011;10525;50.154;8.198;2023-02-01T03:05:15;5.07;;;3.20;;
20727;SDS011;10525;50.154;8.198;2023-02-01T03:07:57;12.80;;;3.30;;
20727;SDS011;10525;50.154;8.198;2023-02-01T03:10:35;8.00;;;3.50;;
20727;SDS011;10525;50.154;8.198;2023-02-01T03:13:08;6.10;;;3.25;;
20727;SDS011;10525;50.154;8.198;2023-02-01T03:15:38;7.45;;;2.95;;
20727;SDS011;10525;50.154;8.198;2023-02-01T03:18:10;3.80;;;2.90;;
20727;SDS011;10525;50.154;8.198;2023-02-01T03:20:41;6.22;;;2.85;;
20727;SDS011;10525;50.154;8.198;2023-02-01T03:23:12;6.90;;;2.85;;
20727;SDS011;10525;50.154;8.198;2023-02-01T03:25:42;4.00;;;3.45;;
20727;SDS011;10525;50.154;8.198;2023-02-01T03:28:12;5.97;;;2.88;;
20727;SDS011;10525;50.154;8.198;2023-02-01T03:30:41;3.13;;;2.90;;
20727;SDS011;10525;50.154;8.198;2023-02-01T03:33:10;5.50;;;3.05;;
20727;SDS011;10525;50.154;8.198;2023-02-01T03:35:47;4.00;;;2.78;;
20727;SDS011;10525;50.154;8.198;2023-02-01T03:38:22;3.55;;;3.05;;
20727;SDS011;10525;50.154;8.198;2023-02-01T03:40:53;3.78;;;3.08;;
20727;SDS011;10525;50.154;8.198;2023-02-01T03:43:24;3.58;;;2.88;;
20727;SDS011;10525;50.154;8.198;2023-02-01T03:45:57;7.40;;;3.47;;
20727;SDS011;10525;50.154;8.198;2023-02-01T03:48:27;7.70;;;3.03;;
20727;SDS011;10525;50.154;8.198;2023-02-01T03:50:56;15.18;;;3.85;;
20727;SDS011;10525;50.154;8.198;2023-02-01T03:53:26;10.45;;;3.10;;
20727;SDS011;10525;50.154;8.198;2023-02-01T03:55:54;5.88;;;3.25;;
20727;SDS011;10525;50.154;8.198;2023-02-01T03:58:23;10.18;;;3.40;;
20727;SDS011;10525;50.154;8.198;2023-02-01T04:00:50;7.78;;;3.90;;
20727;SDS011;10525;50.154;8.198;2023-02-01T04:03:19;10.38;;;3.30;;
20727;SDS011;10525;50.154;8.198;2023-02-01T04:05:47;4.32;;;3.40;;
20727;SDS011;10525;50.154;8.198;2023-02-01T04:08:14;4.32;;;3.63;;
20727;SDS011;10525;50.154;8.198;2023-02-01T04:10:42;15.60;;;3.67;;
20727;SDS011;10525;50.154;8.198;2023-02-01T04:13:09;6.68;;;3.60;;
20727;SDS011;10525;50.154;8.198;2023-02-01T04:15:35;10.77;;;3.53;;
20727;SDS011;10525;50.154;8.198;2023-02-01T04:18:02;12.48;;;3.67;;
20727;SDS011;10525;50.154;8.198;2023-02-01T04:20:29;10.40;;;3.55;;
20727;SDS011;10525;50.154;8.198;2023-02-01T04:22:55;9.70;;;3.78;;
20727;SDS011;10525;50.154;8.198;2023-02-01T04:25:22;8.57;;;3.30;;
20727;SDS011;10525;50.154;8.198;2023-02-01T04:27:50;6.32;;;3.67;;
20727;SDS011;10525;50.154;8.198;2023-02-01T04:30:17;9.25;;;3.40;;
20727;SDS011;10525;50.154;8.198;2023-02-01T04:32:44;10.18;;;3.72;;
20727;SDS011;10525;50.154;8.198;2023-02-01T04:35:10;9.05;;;3.60;;
20727;SDS011;10525;50.154;8.198;2023-02-01T04:37:37;6.75;;;3.58;;
20727;SDS011;10525;50.154;8.198;2023-02-01T04:40:04;14.18;;;3.75;;
20727;SDS011;10525;50.154;8.198;2023-02-01T04:42:31;9.80;;;3.25;;
20727;SDS011;10525;50.154;8.198;2023-02-01T04:44:59;15.23;;;3.65;;
20727;SDS011;10525;50.154;8.198;2023-02-01T04:47:26;8.65;;;3.30;;
20727;SDS011;10525;50.154;8.198;2023-02-01T04:49:53;10.55;;;3.75;;
20727;SDS011;10525;50.154;8.198;2023-02-01T04:52:19;13.23;;;3.22;;
20727;SDS011;10525;50.154;8.198;2023-02-01T04:54:46;10.70;;;3.08;;
20727;SDS011;10525;50.154;8.198;2023-02-01T04:57:13;12.82;;;3.38;;
20727;SDS011;10525;50.154;8.198;2023-02-01T04:59:39;13.15;;;3.30;;
20727;SDS011;10525;50.154;8.198;2023-02-01T05:02:08;10.35;;;2.90;;
20727;SDS011;10525;50.154;8.198;2023-02-01T05:04:34;6.88;;;2.90;;
20727;SDS011;10525;50.154;8.198;2023-02-01T05:07:01;15.68;;;3.53;;
20727;SDS011;10525;50.154;8.198;2023-02-01T05:09:27;16.30;;;3.30;;
20727;SDS011;10525;50.154;8.198;2023-02-01T05:11:54;9.40;;;4.22;;
20727;SDS011;10525;50.154;8.198;2023-02-01T05:14:38;17.15;;;3.40;;
20727;SDS011;10525;50.154;8.198;2023-02-01T05:17:05;9.15;;;3.53;;
20727;SDS011;10525;50.154;8.198;2023-02-01T05:19:33;12.55;;;2.97;;
20727;SDS011;10525;50.154;8.198;2023-02-01T05:22:00;4.53;;;2.92;;
20727;SDS011;10525;50.154;8.198;2023-02-01T05:24:26;4.72;;;2.78;;
20727;SDS011;10525;50.154;8.198;2023-02-01T05:26:53;15.90;;;4.10;;
20727;SDS011;10525;50.154;8.198;2023-02-01T05:29:20;14.75;;;3.35;;
20727;SDS011;10525;50.154;8.198;2023-02-01T05:31:46;10.68;;;3.60;;
20727;SDS011;10525;50.154;8.198;2023-02-01T05:34:14;9.77;;;3.67;;
20727;SDS011;10525;50.154;8.198;2023-02-01T05:36:42;15.52;;;4.72;;
20727;SDS011;10525;50.154;8.198;2023-02-01T05:39:09;15.30;;;4.57;;
20727;SDS011;10525;50.154;8.198;2023-02-01T05:41:36;12.70;;;3.72;;
20727;SDS011;10525;50.154;8.198;2023-02-01T05:44:03;15.23;;;4.65;;
20727;SDS011;10525;50.154;8.198;2023-02-01T05:46:32;14.10;;;4.30;;
20727;SDS011;10525;50.154;8.198;2023-02-01T05:48:59;8.38;;;3.60;;
20727;SDS011;10525;50.154;8.198;2023-02-01T05:51:25;16.02;;;3.80;;
20727;SDS011;10525;50.154;8.198;2023-02-01T05:53:53;8.07;;;4.20;;
20727;SDS011;10525;50.154;8.198;2023-02-01T05:56:20;10.63;;;3.60;;
20727;SDS011;10525;50.154;8.198;2023-02-01T05:58:47;13.85;;;4.85;;
20727;SDS011;10525;50.154;8.198;2023-02-01T06:01:13;11.85;;;3.85;;
20727;SDS011;10525;50.154;8.198;2023-02-01T06:03:40;16.65;;;3.70;;
20727;SDS011;10525;50.154;8.198;2023-02-01T06:06:07;16.98;;;4.00;;
20727;SDS011;10525;50.154;8.198;2023-02-01T06:08:33;18.25;;;3.25;;
20727;SDS011;10525;50.154;8.198;2023-02-01T06:11:02;11.07;;;4.40;;
20727;SDS011;10525;50.154;8.198;2023-02-01T06:13:30;9.63;;;4.35;;
20727;SDS011;10525;50.154;8.198;2023-02-01T06:15:56;15.73;;;4.20;;
20727;SDS011;10525;50.154;8.198;2023-02-01T06:18:23;15.73;;;4.70;;
20727;SDS011;10525;50.154;8.198;2023-02-01T06:20:53;15.20;;;3.53;;
20727;SDS011;10525;50.154;8.198;2023-02-01T06:23:20;12.75;;;4.03;;
20727;SDS011;10525;50.154;8.198;2023-02-01T06:25:49;9.13;;;3.83;;
20727;SDS011;10525;50.154;8.198;2023-02-01T06:28:17;17.17;;;4.38;;
20727;SDS011;10525;50.154;8.198;2023-02-01T06:30:44;20.00;;;3.47;;
20727;SDS011;10525;50.154;8.198;2023-02-01T06:33:11;12.80;;;4.10;;
20727;SDS011;10525;50.154;8.198;2023-02-01T06:35:39;22.35;;;4.55;;
20727;SDS011;10525;50.154;8.198;2023-02-01T06:38:07;10.35;;;3.92;;
20727;SDS011;10525;50.154;8.198;2023-02-01T06:40:34;14.52;;;4.57;;
20727;SDS011;10525;50.154;8.198;2023-02-01T06:43:01;11.02;;;3.58;;
20727;SDS011;10525;50.154;8.198;2023-02-01T06:45:29;16.13;;;4.35;;
20727;SDS011;10525;50.154;8.198;2023-02-01T06:47:57;13.35;;;3.83;;
20727;SDS011;10525;50.154;8.198;2023-02-01T06:50:24;20.00;;;4.18;;
20727;SDS011;10525;50.154;8.198;2023-02-01T06:52:51;17.80;;;3.55;;
20727;SDS011;10525;50.154;8.198;2023-02-01T06:55:18;13.82;;;3.58;;
20727;SDS011;10525;50.154;8.198;2023-02-01T06:57:44;19.52;;;3.53;;
20727;SDS011;10525;50.154;8.198;2023-02-01T07:00:11;12.45;;;3.47;;
20727;SDS011;10525;50.154;8.198;2023-02-01T07:02:40;7.03;;;3.05;;
20727;SDS011;10525;50.154;8.198;2023-02-01T07:05:07;19.83;;;3.42;;
20727;SDS011;10525;50.154;8.198;2023-02-01T07:07:34;12.43;;;3.63;;
20727;SDS011;10525;50.154;8.198;2023-02-01T07:10:01;7.18;;;3.03;;
20727;SDS011;10525;50.154;8.198;2023-02-01T07:12:28;6.73;;;3.00;;
20727;SDS011;10525;50.154;8.198;2023-02-01T07:14:55;7.43;;;3.50;;
20727;SDS011;10525;50.154;8.198;2023-02-01T07:17:22;13.00;;;3.35;;
20727;SDS011;10525;50.154;8.198;2023-02-01T07:19:50;23.80;;;3.90;;
20727;SDS011;10525;50.154;8.198;2023-02-01T07:22:17;2.13;;;2.03;;
20727;SDS011;10525;50.154;8.198;2023-02-01T07:24:43;8.67;;;2.93;;
20727;SDS011;10525;50.154;8.198;2023-02-01T07:27:10;10.80;;;3.07;;
20727;SDS011;10525;50.154;8.198;2023-02-01T07:29:36;12.90;;;3.90;;
20727;SDS011;10525;50.154;8.198;2023-02-01T07:32:03;18.50;;;3.43;;
20727;SDS011;10525;50.154;8.198;2023-02-01T07:34:30;7.80;;;3.00;;
20727;SDS011;10525;50.154;8.198;2023-02-01T07:36:59;7.25;;;3.03;;
20727;SDS011;10525;50.154;8.198;2023-02-01T07:39:25;15.20;;;3.43;;
20727;SDS011;10525;50.154;8.198;2023-02-01T07:41:53;13.87;;;3.70;;
20727;SDS011;10525;50.154;8.198;2023-02-01T07:44:21;8.50;;;3.13;;
20727;SDS011;10525;50.154;8.198;2023-02-01T07:46:48;11.07;;;3.17;;
20727;SDS011;10525;50.154;8.198;2023-02-01T07:49:15;11.70;;;2.80;;
20727;SDS011;10525;50.154;8.198;2023-02-01T07:51:42;12.70;;;3.40;;
20727;SDS011;10525;50.154;8.198;2023-02-01T07:54:10;11.20;;;3.92;;
20727;SDS011;10525;50.154;8.198;2023-02-01T07:56:37;23.95;;;4.88;;
20727;SDS011;10525;50.154;8.198;2023-02-01T07:59:04;18.88;;;4.78;;
20727;SDS011;10525;50.154;8.198;2023-02-01T08:01:32;12.77;;;3.75;;
20727;SDS011;10525;50.154;8.198;2023-02-01T08:03:59;14.40;;;4.15;;
20727;SDS011;10525;50.154;8.198;2023-02-01T08:06:28;6.55;;;3.00;;
20727;SDS011;10525;50.154;8.198;2023-02-01T08:08:56;10.75;;;2.50;;
20727;SDS011;10525;50.154;8.198;2023-02-01T08:11:24;17.35;;;3.83;;
20727;SDS011;10525;50.154;8.198;2023-02-01T08:13:52;8.80;;;3.15;;
20727;SDS011;10525;50.154;8.198;2023-02-01T08:16:19;5.53;;;2.45;;
20727;SDS011;10525;50.154;8.198;2023-02-01T08:18:46;10.80;;;3.47;;
20727;SDS011;10525;50.154;8.198;2023-02-01T08:21:14;12.18;;;3.30;;
20727;SDS011;10525;50.154;8.198;2023-02-01T08:23:42;15.35;;;3.25;;
20727;SDS011;10525;50.154;8.198;2023-02-01T08:26:10;8.55;;;3.65;;
20727;SDS011;10525;50.154;8.198;2023-02-01T08:28:40;13.93;;;3.05;;
20727;SDS011;10525;50.154;8.198;2023-02-01T08:31:09;13.32;;;3.35;;
20727;SDS011;10525;50.154;8.198;2023-02-01T08:33:39;9.57;;;3.15;;
20727;SDS011;10525;50.154;8.198;2023-02-01T08:36:07;14.30;;;2.78;;
20727;SDS011;10525;50.154;8.198;2023-02-01T08:38:35;16.42;;;3.55;;
20727;SDS011;10525;50.154;8.198;2023-02-01T08:41:05;16.42;;;4.75;;
20727;SDS011;10525;50.154;8.198;2023-02-01T08:43:33;4.13;;;2.47;;
20727;SDS011;10525;50.154;8.198;2023-02-01T08:46:01;15.43;;;3.17;;
20727;SDS011;10525;50.154;8.198;2023-02-01T08:48:29;14.07;;;2.80;;
20727;SDS011;10525;50.154;8.198;2023-02-01T08:50:55;20.55;;;3.58;;
20727;SDS011;10525;50.154;8.198;2023-02-01T08:53:22;14.15;;;3.75;;
20727;SDS011;10525;50.154;8.198;2023-02-01T08:55:49;8.63;;;3.00;;
20727;SDS011;10525;50.154;8.198;2023-02-01T08:58:16;7.28;;;3.25;;
20727;SDS011;10525;50.154;8.198;2023-02-01T09:00:43;12.25;;;3.58;;
20727;SDS011;10525;50.154;8.198;2023-02-01T09:03:11;12.65;;;3.22;;
20727;SDS011;10525;50.154;8.198;2023-02-01T09:05:38;7.55;;;2.58;;
20727;SDS011;10525;50.154;8.198;2023-02-01T09:08:05;11.27;;;2.53;;
20727;SDS011;10525;50.154;8.198;2023-02-01T09:10:32;11.20;;;2.67;;
20727;SDS011;10525;50.154;8.198;2023-02-01T09:13:00;9.60;;;3.15;;
20727;SDS011;10525;50.154;8.198;2023-02-01T09:15:28;9.07;;;3.10;;
20727;SDS011;10525;50.154;8.198;2023-02-01T09:17:54;9.63;;;3.40;;
20727;SDS011;10525;50.154;8.198;2023-02-01T09:20:22;10.07;;;3.38;;
20727;SDS011;10525;50.154;8.198;2023-02-01T09:22:50;8.07;;;3.00;;
20727;SDS011;10525;50.154;8.198;2023-02-01T09:25:17;11.63;;;3.38;;
20727;SDS011;10525;50.154;8.198;2023-02-01T09:27:44;7.80;;;3.25;;
20727;SDS011;10525;50.154;8.198;2023-02-01T09:30:11;8.90;;;3.08;;
20727;SDS011;10525;50.154;8.198;2023-02-01T09:32:38;11.23;;;3.20;;
20727;SDS011;10525;50.154;8.198;2023-02-01T09:35:05;8.70;;;3.03;;
20727;SDS011;10525;50.154;8.198;2023-02-01T09:37:33;6.90;;;3.13;;
20727;SDS011;10525;50.154;8.198;2023-02-01T09:40:01;9.05;;;3.03;;
20727;SDS011;10525;50.154;8.198;2023-02-01T09:42:35;6.50;;;2.40;;
20727;SDS011;10525;50.154;8.198;2023-02-01T09:45:15;10.88;;;2.50;;
20727;SDS011;10525;50.154;8.198;2023-02-01T09:47:49;8.52;;;2.67;;
20727;SDS011;10525;50.154;8.198;2023-02-01T09:50:21;9.38;;;2.25;;
20727;SDS011;10525;50.154;8.198;2023-02-01T09:52:57;10.70;;;2.60;;
20727;SDS011;10525;50.154;8.198;2023-02-01T09:55:30;7.43;;;2.50;;
20727;SDS011;10525;50.154;8.198;2023-02-01T09:58:02;15.40;;;2.72;;
20727;SDS011;10525;50.154;8.198;2023-02-01T10:00:34;7.68;;;2.90;;
20727;SDS011;10525;50.154;8.198;2023-02-01T10:03:03;13.32;;;3.17;;
20727;SDS011;10525;50.154;8.198;2023-02-01T10:05:36;4.75;;;2.72;;
20727;SDS011;10525;50.154;8.198;2023-02-01T10:08:15;7.45;;;3.15;;
20727;SDS011;10525;50.154;8.198;2023-02-01T10:10:50;10.55;;;2.95;;
20727;SDS011;10525;50.154;8.198;2023-02-01T10:13:21;4.72;;;2.42;;
20727;SDS011;10525;50.154;8.198;2023-02-01T10:16:01;8.50;;;2.30;;
20727;SDS011;10525;50.154;8.198;2023-02-01T10:18:42;9.13;;;2.72;;
20727;SDS011;10525;50.154;8.198;2023-02-01T10:21:19;2.45;;;2.05;;
20727;SDS011;10525;50.154;8.198;2023-02-01T10:24:15;13.60;;;2.63;;
20727;SDS011;10525;50.154;8.198;2023-02-01T10:26:51;10.15;;;2.78;;
20727;SDS011;10525;50.154;8.198;2023-02-01T10:29:24;8.60;;;2.75;;
20727;SDS011;10525;50.154;8.198;2023-02-01T10:31:56;16.30;;;3.05;;
20727;SDS011;10525;50.154;8.198;2023-02-01T10:34:24;12.63;;;2.50;;
20727;SDS011;10525;50.154;8.198;2023-02-01T10:36:54;17.15;;;2.45;;
20727;SDS011;10525;50.154;8.198;2023-02-01T10:39:24;7.18;;;2.35;;
20727;SDS011;10525;50.154;8.198;2023-02-01T10:41:51;11.02;;;3.22;;
20727;SDS011;10525;50.154;8.198;2023-02-01T10:44:19;4.68;;;2.67;;
20727;SDS011;10525;50.154;8.198;2023-02-01T10:46:50;12.35;;;3.22;;
20727;SDS011;10525;50.154;8.198;2023-02-01T10:49:17;12.52;;;2.80;;
20727;SDS011;10525;50.154;8.198;2023-02-01T10:51:47;11.43;;;3.03;;
20727;SDS011;10525;50.154;8.198;2023-02-01T10:54:19;9.50;;;2.88;;
20727;SDS011;10525;50.154;8.198;2023-02-01T10:56:49;9.93;;;3.17;;
20727;SDS011;10525;50.154;8.198;2023-02-01T10:59:18;14.48;;;3.08;;
20727;SDS011;10525;50.154;8.198;2023-02-01T11:01:49;3.70;;;2.47;;
20727;SDS011;10525;50.154;8.198;2023-02-01T11:04:24;4.80;;;2.22;;
20727;SDS011;10525;50.154;8.198;2023-02-01T11:06:52;7.38;;;3.13;;
20727;SDS011;10525;50.154;8.198;2023-02-01T11:09:30;12.75;;;2.63;;
20727;SDS011;10525;50.154;8.198;2023-02-01T11:11:59;9.70;;;3.13;;
20727;SDS011;10525;50.154;8.198;2023-02-01T11:14:27;14.85;;;3.65;;
20727;SDS011;10525;50.154;8.198;2023-02-01T11:17:02;16.23;;;3.15;;
20727;SDS011;10525;50.154;8.198;2023-02-01T11:19:44;7.05;;;2.75;;
20727;SDS011;10525;50.154;8.198;2023-02-01T11:22:11;9.25;;;2.80;;
20727;SDS011;10525;50.154;8.198;2023-02-01T11:24:39;17.17;;;3.10;;
20727;SDS011;10525;50.154;8.198;2023-02-01T11:27:14;10.10;;;2.53;;
20727;SDS011;10525;50.154;8.198;2023-02-01T11:29:43;8.93;;;2.50;;
20727;SDS011;10525;50.154;8.198;2023-02-01T11:32:14;16.90;;;3.03;;
20727;SDS011;10525;50.154;8.198;2023-02-01T11:34:44;10.25;;;2.53;;
20727;SDS011;10525;50.154;8.198;2023-02-01T11:37:15;5.35;;;2.28;;
20727;SDS011;10525;50.154;8.198;2023-02-01T11:39:53;9.50;;;3.10;;
20727;SDS011;10525;50.154;8.198;2023-02-01T11:42:22;9.07;;;2.85;;
20727;SDS011;10525;50.154;8.198;2023-02-01T11:44:49;7.90;;;2.20;;
20727;SDS011;10525;50.154;8.198;2023-02-01T11:47:23;9.18;;;2.58;;
20727;SDS011;10525;50.154;8.198;2023-02-01T11:49:52;13.73;;;2.63;;
20727;SDS011;10525;50.154;8.198;2023-02-01T11:52:25;4.22;;;2.22;;
20727;SDS011;10525;50.154;8.198;2023-02-01T11:55:07;16.15;;;3.38;;
20727;SDS011;10525;50.154;8.198;2023-02-01T11:57:49;13.20;;;2.20;;
20727;SDS011;10525;50.154;8.198;2023-02-01T12:00:31;9.68;;;2.30;;
20727;SDS011;10525;50.154;8.198;2023-02-01T12:03:26;11.50;;;2.80;;
20727;SDS011;10525;50.154;8.198;2023-02-01T12:06:11;9.00;;;2.92;;
20727;SDS011;10525;50.154;8.198;2023-02-01T12:09:05;13.25;;;2.92;;
20727;SDS011;10525;50.154;8.198;2023-02-01T12:11:48;5.75;;;2.80;;
20727;SDS011;10525;50.154;8.198;2023-02-01T12:14:32;11.35;;;2.45;;
20727;SDS011;10525;50.154;8.198;2023-02-01T12:17:30;5.53;;;2.25;;
20727;SDS011;10525;50.154;8.198;2023-02-01T12:23:11;11.30;;;2.70;;
20727;SDS011;10525;50.154;8.198;2023-02-01T12:25:54;9.63;;;2.90;;
20727;SDS011;10525;50.154;8.198;2023-02-01T12:31:48;17.52;;;3.10;;
20727;SDS011;10525;50.154;8.198;2023-02-01T12:34:32;10.25;;;3.03;;
20727;SDS011;10525;50.154;8.198;2023-02-01T12:37:32;10.55;;;2.83;;
20727;SDS011;10525;50.154;8.198;2023-02-01T12:40:13;12.25;;;2.83;;
20727;SDS011;10525;50.154;8.198;2023-02-01T12:42:49;7.35;;;2.70;;
20727;SDS011;10525;50.154;8.198;2023-02-01T12:45:25;21.25;;;2.88;;
20727;SDS011;10525;50.154;8.198;2023-02-01T12:47:59;14.15;;;3.28;;
20727;SDS011;10525;50.154;8.198;2023-02-01T12:50:41;11.60;;;2.38;;
20727;SDS011;10525;50.154;8.198;2023-02-01T12:53:12;8.93;;;2.85;;
20727;SDS011;10525;50.154;8.198;2023-02-01T12:55:46;12.85;;;2.50;;
20727;SDS011;10525;50.154;8.198;2023-02-01T12:58:17;11.20;;;2.60;;
20727;SDS011;10525;50.154;8.198;2023-02-01T13:00:49;13.55;;;3.53;;
20727;SDS011;10525;50.154;8.198;2023-02-01T13:03:26;16.40;;;3.35;;
20727;SDS011;10525;50.154;8.198;2023-02-01T13:05:58;3.55;;;2.30;;
20727;SDS011;10525;50.154;8.198;2023-02-01T13:08:31;12.95;;;2.70;;
20727;SDS011;10525;50.154;8.198;2023-02-01T13:11:09;7.47;;;2.40;;
20727;SDS011;10525;50.154;8.198;2023-02-01T13:13:42;14.80;;;2.90;;
20727;SDS011;10525;50.154;8.198;2023-02-01T13:16:15;20.17;;;2.58;;
20727;SDS011;10525;50.154;8.198;2023-02-01T13:18:49;6.63;;;2.50;;
20727;SDS011;10525;50.154;8.198;2023-02-01T13:21:18;5.70;;;2.38;;
20727;SDS011;10525;50.154;8.198;2023-02-01T13:23:49;7.28;;;2.80;;
20727;SDS011;10525;50.154;8.198;2023-02-01T13:26:18;15.80;;;3.28;;
20727;SDS011;10525;50.154;8.198;2023-02-01T13:28:45;14.38;;;3.22;;
20727;SDS011;10525;50.154;8.198;2023-02-01T13:31:19;7.13;;;2.65;;
20727;SDS011;10525;50.154;8.198;2023-02-01T13:37:23;6.65;;;2.53;;
20727;SDS011;10525;50.154;8.198;2023-02-01T13:40:10;7.13;;;2.30;;
20727;SDS011;10525;50.154;8.198;2023-02-01T13:42:51;10.77;;;2.60;;
20727;SDS011;10525;50.154;8.198;2023-02-01T13:45:19;11.38;;;3.25;;
20727;SDS011;10525;50.154;8.198;2023-02-01T13:47:49;11.48;;;3.05;;
20727;SDS011;10525;50.154;8.198;2023-02-01T13:50:23;19.98;;;2.78;;
20727;SDS011;10525;50.154;8.198;2023-02-01T13:52:53;13.18;;;2.85;;
20727;SDS011;10525;50.154;8.198;2023-02-01T13:55:24;11.63;;;2.40;;
20727;SDS011;10525;50.154;8.198;2023-02-01T13:57:59;6.50;;;2.58;;
20727;SDS011;10525;50.154;8.198;2023-02-01T14:00:29;8.95;;;2.05;;
20727;SDS011;10525;50.154;8.198;2023-02-01T14:11:39;18.27;;;2.40;;
20727;SDS011;10525;50.154;8.198;2023-02-01T14:23:23;9.43;;;2.30;;
20727;SDS011;10525;50.154;8.198;2023-02-01T14:26:06;11.50;;;2.10;;
20727;SDS011;10525;50.154;8.198;2023-02-01T14:28:35;11.95;;;2.80;;
20727;SDS011;10525;50.154;8.198;2023-02-01T14:31:13;6.90;;;2.85;;
20727;SDS011;10525;50.154;8.198;2023-02-01T14:33:54;15.70;;;2.38;;
20727;SDS011;10525;50.154;8.198;2023-02-01T14:36:23;8.00;;;1.98;;
20727;SDS011;10525;50.154;8.198;2023-02-01T14:38:51;9.70;;;2.38;;
20727;SDS011;10525;50.154;8.198;2023-02-01T14:49:56;13.52;;;2.70;;
20727;SDS011;10525;50.154;8.198;2023-02-01T14:52:30;4.60;;;1.77;;
20727;SDS011;10525;50.154;8.198;2023-02-01T14:55:02;12.15;;;2.53;;
20727;SDS011;10525;50.154;8.198;2023-02-01T14:57:33;10.02;;;2.60;;
20727;SDS011;10525;50.154;8.198;2023-02-01T15:00:06;8.70;;;2.60;;
20727;SDS011;10525;50.154;8.198;2023-02-01T15:02:41;8.52;;;2.00;;
20727;SDS011;10525;50.154;8.198;2023-02-01T15:05:20;6.13;;;2.33;;
20727;SDS011;10525;50.154;8.198;2023-02-01T15:07:54;5.15;;;2.10;;
20727;SDS011;10525;50.154;8.198;2023-02-01T15:10:24;5.53;;;2.03;;
20727;SDS011;10525;50.154;8.198;2023-02-01T15:12:52;11.20;;;1.98;;
20727;SDS011;10525;50.154;8.198;2023-02-01T15:15:20;6.25;;;2.30;;
20727;SDS011;10525;50.154;8.198;2023-02-01T15:17:50;3.47;;;2.35;;
20727;SDS011;10525;50.154;8.198;2023-02-01T15:20:19;7.05;;;2.15;;
20727;SDS011;10525;50.154;8.198;2023-02-01T15:22:53;6.63;;;2.70;;
20727;SDS011;10525;50.154;8.198;2023-02-01T15:25:23;2.08;;;1.70;;
20727;SDS011;10525;50.154;8.198;2023-02-01T15:27:52;4.72;;;1.30;;
20727;SDS011;10525;50.154;8.198;2023-02-01T15:30:20;9.63;;;2.17;;
20727;SDS011;10525;50.154;8.198;2023-02-01T15:32:49;12.55;;;2.92;;
20727;SDS011;10525;50.154;8.198;2023-02-01T15:35:35;8.15;;;2.35;;
20727;SDS011;10525;50.154;8.198;2023-02-01T15:38:21;9.15;;;2.72;;
20727;SDS011;10525;50.154;8.198;2023-02-01T15:41:07;9.82;;;1.95;;